createdAt,value
2022-08-26T00:01:56.613Z,100588.16
2022-08-26T00:04:25.356Z,100583.22
2022-08-26T00:06:55.707Z,100579.19
2022-08-26T00:09:24.636Z,100578.63
2022-08-26T00:11:53.876Z,100586.72
2022-08-26T00:14:27.026Z,100587.50
2022-08-26T00:16:57.714Z,100587.50
2022-08-26T00:19:25.062Z,100587.94
2022-08-26T00:21:52.641Z,100580.16
2022-08-26T00:24:21.792Z,100587.94
2022-08-26T00:26:49.660Z,100581.28
2022-08-26T00:29:18.197Z,100581.63
2022-08-26T00:31:45.778Z,100574.50
2022-08-26T00:34:15.330Z,100579.56
2022-08-26T00:36:43.705Z,100581.56
2022-08-26T00:39:11.338Z,100590.97
2022-08-26T00:41:41.118Z,100584.88
2022-08-26T00:44:11.038Z,100588.66
2022-08-26T00:47:00.097Z,100578.75
2022-08-26T00:49:39.119Z,100576.59
2022-08-26T00:52:15.692Z,100566.31
2022-08-26T00:55:02.861Z,100571.38
2022-08-26T00:57:31.823Z,100567.66
2022-08-26T01:00:01.492Z,100565.66
2022-08-26T01:02:29.168Z,100570.09
2022-08-26T01:05:01.325Z,100566.09
2022-08-26T01:07:32.931Z,100569.50
2022-08-26T01:10:07.902Z,100570.44
2022-08-26T01:12:41.053Z,100567.16
2022-08-26T01:15:11.599Z,100565.75
2022-08-26T01:17:39.523Z,100563.81
2022-08-26T01:20:18.721Z,100561.81
2022-08-26T01:22:57.638Z,100564.38
2022-08-26T01:25:28.407Z,100557.88
2022-08-26T01:27:58.846Z,100546.25
2022-08-26T01:30:31.162Z,100544.75
2022-08-26T01:33:03.024Z,100548.34
2022-08-26T01:35:30.849Z,100551.41
2022-08-26T01:38:00.630Z,100539.28
2022-08-26T01:40:33.762Z,100542.94
2022-08-26T01:43:02.309Z,100541.44
2022-08-26T01:45:33.284Z,100547.69
2022-08-26T01:48:04.480Z,100537.75
2022-08-26T01:50:34.469Z,100542.28
2022-08-26T01:53:09.450Z,100544.84
2022-08-26T01:55:41.629Z,100545.38
2022-08-26T01:58:23.504Z,100548.59
2022-08-26T02:00:51.835Z,100534.56
2022-08-26T02:03:22.279Z,100543.75
2022-08-26T02:05:58.118Z,100537.94
2022-08-26T02:08:31.085Z,100542.53
2022-08-26T02:10:58.583Z,100542.75
2022-08-26T02:13:30.075Z,100537.13
2022-08-26T02:16:00.857Z,100545.19
2022-08-26T02:18:30.336Z,100542.38
2022-08-26T02:20:57.663Z,100538.31
2022-08-26T02:23:27.036Z,100543.03
2022-08-26T02:26:09.283Z,100540.06
2022-08-26T02:28:44.568Z,100528.06
2022-08-26T02:31:12.653Z,100534.97
2022-08-26T02:33:43.063Z,100530.06
2022-08-26T02:36:10.876Z,100532.13
2022-08-26T02:38:40.703Z,100528.78
2022-08-26T02:41:11.237Z,100529.28
2022-08-26T02:43:38.557Z,100524.97
2022-08-26T02:46:06.015Z,100523.78
2022-08-26T02:48:33.694Z,100517.06
2022-08-26T02:51:01.888Z,100526.88
2022-08-26T02:53:32.068Z,100521.16
2022-08-26T02:56:04.672Z,100511.94
2022-08-26T02:58:32.468Z,100523.41
2022-08-26T03:00:59.802Z,100507.78
2022-08-26T03:03:29.198Z,100516.44
2022-08-26T03:05:57.869Z,100512.09
2022-08-26T03:08:25.355Z,100510.56
2022-08-26T03:10:52.966Z,100505.38
2022-08-26T03:13:20.414Z,100504.94
2022-08-26T03:15:47.859Z,100500.22
2022-08-26T03:18:16.034Z,100504.94
2022-08-26T03:20:43.989Z,100502.22
2022-08-26T03:23:12.544Z,100497.53
2022-08-26T03:25:40.143Z,100504.66
2022-08-26T03:28:07.711Z,100498.50
2022-08-26T03:30:44.639Z,100492.25
2022-08-26T03:33:14.542Z,100496.78
2022-08-26T03:35:43.678Z,100496.59
2022-08-26T03:38:11.787Z,100487.84
2022-08-26T03:40:39.832Z,100493.53
2022-08-26T03:43:10.191Z,100494.69
2022-08-26T03:45:38.253Z,100490.97
2022-08-26T03:48:06.020Z,100500.03
2022-08-26T03:50:36.011Z,100501.66
2022-08-26T03:53:04.130Z,100499.28
2022-08-26T03:55:33.237Z,100494.13
2022-08-26T03:58:02.087Z,100500.91
2022-08-26T04:00:30.330Z,100494.91
2022-08-26T04:02:57.935Z,100493.34
2022-08-26T04:05:25.387Z,100491.44
2022-08-26T04:07:52.909Z,100490.13
2022-08-26T04:10:29.121Z,100492.91
2022-08-26T04:12:59.392Z,100494.91
2022-08-26T04:15:27.140Z,100501.53
2022-08-26T04:17:55.965Z,100496.06
2022-08-26T04:20:25.459Z,100495.47
2022-08-26T04:22:53.110Z,100494.28
2022-08-26T04:25:21.266Z,100493.81
2022-08-26T04:27:48.661Z,100486.34
2022-08-26T04:30:18.039Z,100492.91
2022-08-26T04:32:45.620Z,100489.00
2022-08-26T04:35:12.923Z,100490.56
2022-08-26T04:37:43.039Z,100488.38
2022-08-26T04:40:11.146Z,100491.94
2022-08-26T04:42:38.575Z,100494.28
2022-08-26T04:45:10.243Z,100493.00
2022-08-26T04:47:38.840Z,100492.47
2022-08-26T04:50:08.351Z,100495.09
2022-08-26T04:52:38.858Z,100496.91
2022-08-26T04:55:08.595Z,100499.28
2022-08-26T04:57:36.376Z,100500.09
2022-08-26T05:00:06.690Z,100499.72
2022-08-26T05:02:34.423Z,100492.19
2022-08-26T05:05:02.647Z,100499.28
2022-08-26T05:07:31.388Z,100493.56
2022-08-26T05:09:59.349Z,100494.75
2022-08-26T05:12:28.240Z,100497.03
2022-08-26T05:14:55.799Z,100491.19
2022-08-26T05:17:23.406Z,100500.16
2022-08-26T05:19:50.781Z,100492.13
2022-08-26T05:22:18.324Z,100498.84
2022-08-26T05:24:46.474Z,100496.41
2022-08-26T05:27:14.331Z,100503.94
2022-08-26T05:29:42.410Z,100510.94
2022-08-26T05:32:11.895Z,100512.53
2022-08-26T05:34:39.441Z,100505.13
2022-08-26T05:37:10.319Z,100512.88
2022-08-26T05:39:38.199Z,100514.66
2022-08-26T05:42:08.601Z,100508.53
2022-08-26T05:44:53.876Z,100511.59
2022-08-26T05:47:24.227Z,100511.66
2022-08-26T05:49:52.430Z,100515.66
2022-08-26T05:52:20.359Z,100512.00
2022-08-26T05:54:47.837Z,100517.16
2022-08-26T05:57:15.956Z,100515.31
2022-08-26T05:59:45.912Z,100515.47
2022-08-26T06:02:13.397Z,100521.84
2022-08-26T06:04:41.011Z,100526.72
2022-08-26T06:07:11.508Z,100525.91
2022-08-26T06:09:39.694Z,100527.25
2022-08-26T06:12:07.268Z,100530.22
2022-08-26T06:14:36.053Z,100534.66
2022-08-26T06:17:03.402Z,100537.13
2022-08-26T06:19:33.057Z,100534.50
2022-08-26T06:22:23.281Z,100538.44
2022-08-26T06:25:09.927Z,100535.97
2022-08-26T06:27:37.469Z,100536.47
2022-08-26T06:30:05.208Z,100546.41
2022-08-26T06:32:33.662Z,100537.84
2022-08-26T06:35:01.059Z,100548.66
2022-08-26T06:37:28.902Z,100544.13
2022-08-26T06:39:56.624Z,100545.41
2022-08-26T06:42:25.109Z,100552.34
2022-08-26T06:44:52.508Z,100551.28
2022-08-26T06:47:20.293Z,100541.22
2022-08-26T06:49:48.303Z,100544.19
2022-08-26T06:52:22.971Z,100545.78
2022-08-26T06:54:52.026Z,100543.50
2022-08-26T06:57:20.460Z,100538.78
2022-08-26T06:59:48.603Z,100534.97
2022-08-26T07:02:19.073Z,100528.53
2022-08-26T07:04:48.123Z,100538.72
2022-08-26T07:07:18.568Z,100542.03
2022-08-26T07:09:49.352Z,100528.41
2022-08-26T07:12:20.319Z,100538.13
2022-08-26T07:14:48.433Z,100536.41
2022-08-26T07:17:16.324Z,100541.53
2022-08-26T07:19:43.899Z,100538.72
2022-08-26T07:22:11.302Z,100537.47
2022-08-26T07:24:42.674Z,100534.97
2022-08-26T07:27:15.905Z,100541.06
2022-08-26T07:29:45.017Z,100547.31
2022-08-26T07:32:14.580Z,100538.75
2022-08-26T07:34:43.168Z,100538.28
2022-08-26T07:37:11.640Z,100543.09
2022-08-26T07:39:41.618Z,100538.38
2022-08-26T07:42:14.015Z,100543.72
2022-08-26T07:44:42.224Z,100549.44
2022-08-26T07:47:25.515Z,100539.25
2022-08-26T07:49:55.795Z,100546.53
2022-08-26T07:52:26.888Z,100538.84
2022-08-26T07:54:59.011Z,100542.84
2022-08-26T07:57:27.547Z,100548.19
2022-08-26T07:59:56.064Z,100544.97
2022-08-26T08:02:25.469Z,100540.44
2022-08-26T08:04:53.110Z,100542.09
2022-08-26T08:07:21.694Z,100545.56
2022-08-26T08:10:09.875Z,100543.63
2022-08-26T08:12:40.329Z,100539.66
2022-08-26T08:15:10.273Z,100536.19
2022-08-26T08:17:38.680Z,100540.78
2022-08-26T08:20:07.943Z,100533.09
2022-08-26T08:22:35.624Z,100531.66
2022-08-26T08:25:06.338Z,100532.09
2022-08-26T08:27:37.077Z,100538.75
2022-08-26T08:30:06.224Z,100544.13
2022-08-26T08:32:34.163Z,100541.38
2022-08-26T08:35:02.666Z,100533.00
2022-08-26T08:37:38.326Z,100533.69
2022-08-26T08:40:07.901Z,100526.38
2022-08-26T08:42:42.868Z,100533.78
2022-08-26T08:45:26.148Z,100531.94
2022-08-26T08:47:58.126Z,100531.72
2022-08-26T08:50:35.481Z,100530.91
2022-08-26T08:53:17.686Z,100524.19
2022-08-26T08:55:48.074Z,100526.78
2022-08-26T08:58:21.025Z,100522.00
2022-08-26T09:01:04.107Z,100518.06
2022-08-26T09:03:58.076Z,100519.59
2022-08-26T09:06:28.670Z,100513.72
2022-08-26T09:08:57.281Z,100510.19
2022-08-26T09:11:25.144Z,100510.81
2022-08-26T09:13:55.405Z,100509.34
2022-08-26T09:16:23.489Z,100509.97
2022-08-26T09:19:11.133Z,100509.38
2022-08-26T09:21:38.667Z,100512.94
2022-08-26T09:24:07.768Z,100507.78
2022-08-26T09:26:38.649Z,100500.91
2022-08-26T09:29:14.253Z,100506.56
2022-08-26T09:31:42.552Z,100505.09
2022-08-26T09:34:23.708Z,100508.50
2022-08-26T09:36:53.585Z,100496.25
2022-08-26T09:39:24.924Z,100504.97
2022-08-26T09:42:19.337Z,100492.44
2022-08-26T09:45:03.587Z,100494.97
2022-08-26T09:47:47.884Z,100490.72
2022-08-26T09:50:36.016Z,100486.34
2022-08-26T09:53:12.945Z,100497.50
2022-08-26T09:55:43.196Z,100488.00
2022-08-26T09:58:16.839Z,100486.72
2022-08-26T10:00:56.904Z,100485.03
2022-08-26T10:03:28.687Z,100479.56
2022-08-26T10:06:05.184Z,100479.88
2022-08-26T10:08:34.249Z,100474.81
2022-08-26T10:11:11.220Z,100470.66
2022-08-26T10:13:43.714Z,100476.47
2022-08-26T10:16:20.615Z,100468.59
2022-08-26T10:19:11.709Z,100463.44
2022-08-26T10:21:49.471Z,100462.66
2022-08-26T10:24:50.826Z,100462.34
2022-08-26T10:27:30.318Z,100457.06
2022-08-26T10:30:06.279Z,100462.47
2022-08-26T10:32:40.851Z,100459.50
2022-08-26T10:35:12.868Z,100459.22
2022-08-26T10:37:51.003Z,100457.38
2022-08-26T10:40:29.295Z,100450.41
2022-08-26T10:43:11.044Z,100458.75
2022-08-26T10:45:46.934Z,100441.97
2022-08-26T10:48:24.493Z,100443.41
2022-08-26T10:50:51.968Z,100443.06
2022-08-26T10:53:34.288Z,100438.97
2022-08-26T10:56:15.825Z,100434.63
2022-08-26T10:58:46.295Z,100437.56
2022-08-26T11:01:42.205Z,100435.91
2022-08-26T11:04:42.295Z,100427.81
2022-08-26T11:07:56.125Z,100422.41
2022-08-26T11:10:24.436Z,100429.13
2022-08-26T11:13:03.780Z,100430.16
2022-08-26T11:15:31.653Z,100424.88
2022-08-26T11:18:04.903Z,100416.16
2022-08-26T11:20:47.152Z,100422.38
2022-08-26T11:23:20.570Z,100416.13
2022-08-26T11:26:10.962Z,100420.81
2022-08-26T11:28:40.123Z,100413.19
2022-08-26T11:31:40.458Z,100421.53
2022-08-26T11:34:13.375Z,100411.31
2022-08-26T11:36:52.150Z,100411.06
2022-08-26T11:39:24.148Z,100410.28
2022-08-26T11:41:54.423Z,100404.19
2022-08-26T11:44:24.972Z,100400.25
2022-08-26T11:46:53.920Z,100405.16
2022-08-26T11:49:21.598Z,100399.25
2022-08-26T11:51:48.946Z,100400.38
2022-08-26T11:54:30.493Z,100390.13
2022-08-26T11:57:09.513Z,100391.31
2022-08-26T11:59:42.342Z,100384.22
2022-08-26T12:02:17.717Z,100373.31
2022-08-26T12:04:48.894Z,100380.00
2022-08-26T12:07:18.499Z,100374.91
2022-08-26T12:09:54.868Z,100374.34
2022-08-26T12:12:35.223Z,100367.63
2022-08-26T12:15:12.780Z,100360.13
2022-08-26T12:17:41.875Z,100367.84
2022-08-26T12:20:29.053Z,100366.75
2022-08-26T12:22:59.081Z,100357.81
2022-08-26T12:25:28.012Z,100348.56
2022-08-26T12:28:05.552Z,100350.53
2022-08-26T12:30:32.991Z,100348.03
2022-08-26T12:33:22.205Z,100341.69
2022-08-26T12:35:54.790Z,100346.06
2022-08-26T12:38:26.130Z,100338.47
2022-08-26T12:40:53.910Z,100335.69
2022-08-26T12:43:41.022Z,100336.38
2022-08-26T12:46:16.461Z,100334.09
2022-08-26T12:48:47.560Z,100327.88
2022-08-26T12:51:25.518Z,100328.84
2022-08-26T12:53:54.042Z,100322.03
2022-08-26T12:56:24.482Z,100314.50
2022-08-26T12:59:02.832Z,100306.63
2022-08-26T13:01:38.160Z,100304.19
2022-08-26T13:04:06.933Z,100307.97
2022-08-26T13:06:35.062Z,100289.47
2022-08-26T13:09:25.136Z,100290.25
2022-08-26T13:11:53.184Z,100298.25
2022-08-26T13:14:24.371Z,100289.13
2022-08-26T13:16:52.823Z,100287.22
2022-08-26T13:19:22.914Z,100283.06
2022-08-26T13:21:56.657Z,100274.78
2022-08-26T13:24:38.437Z,100276.06
2022-08-26T13:27:07.885Z,100274.59
2022-08-26T13:29:35.737Z,100267.47
2022-08-26T13:32:04.721Z,100265.84
2022-08-26T13:34:32.593Z,100273.22
2022-08-26T13:36:59.974Z,100264.75
2022-08-26T13:39:27.502Z,100267.91
2022-08-26T13:41:54.946Z,100269.22
2022-08-26T13:44:22.302Z,100260.13
2022-08-26T13:46:49.757Z,100261.09
2022-08-26T13:49:17.283Z,100254.75
2022-08-26T13:51:44.618Z,100255.13
2022-08-26T13:54:11.925Z,100250.47
2022-08-26T13:56:39.764Z,100256.97
2022-08-26T13:59:07.148Z,100246.91
2022-08-26T14:01:35.722Z,100246.31
2022-08-26T14:04:03.369Z,100254.47
2022-08-26T14:06:30.764Z,100249.78
2022-08-26T14:08:58.635Z,100246.47
2022-08-26T14:11:26.980Z,100244.78
2022-08-26T14:13:54.351Z,100241.06
2022-08-26T14:16:33.168Z,100240.56
2022-08-26T14:19:02.146Z,100236.72
2022-08-26T14:21:32.183Z,100233.75
2022-08-26T14:24:01.056Z,100224.41
2022-08-26T14:26:29.936Z,100233.91
2022-08-26T14:28:59.078Z,100232.63
2022-08-26T14:31:29.326Z,100233.22
2022-08-26T14:34:01.056Z,100234.00
2022-08-26T14:36:28.506Z,100228.00
2022-08-26T14:38:58.240Z,100231.94
2022-08-26T14:41:27.115Z,100224.09
2022-08-26T14:44:01.999Z,100222.59
2022-08-26T14:46:31.725Z,100223.72
2022-08-26T14:49:02.054Z,100227.22
2022-08-26T14:51:30.380Z,100221.19
2022-08-26T14:54:12.897Z,100218.66
2022-08-26T14:56:52.110Z,100213.94
2022-08-26T14:59:28.253Z,100211.84
2022-08-26T15:01:56.624Z,100209.41
2022-08-26T15:04:25.281Z,100209.09
2022-08-26T15:06:56.311Z,100209.00
2022-08-26T15:09:24.010Z,100202.03
2022-08-26T15:11:52.811Z,100203.44
2022-08-26T15:14:21.581Z,100209.25
2022-08-26T15:16:51.080Z,100203.22
2022-08-26T15:19:19.330Z,100207.97
2022-08-26T15:21:47.688Z,100207.00
2022-08-26T15:24:20.063Z,100210.13
2022-08-26T15:26:47.727Z,100210.38
2022-08-26T15:29:15.414Z,100209.28
2022-08-26T15:31:43.088Z,100209.38
2022-08-26T15:34:16.434Z,100210.53
2022-08-26T15:36:46.353Z,100207.53
2022-08-26T15:39:15.593Z,100218.41
2022-08-26T15:41:42.903Z,100216.88
2022-08-26T15:44:11.745Z,100217.06
2022-08-26T15:46:39.559Z,100210.63
2022-08-26T15:49:07.076Z,100208.53
2022-08-26T15:51:45.837Z,100216.03
2022-08-26T15:54:16.681Z,100215.13
2022-08-26T15:56:45.642Z,100218.63
2022-08-26T15:59:16.070Z,100208.97
2022-08-26T16:01:44.334Z,100212.75
2022-08-26T16:04:12.013Z,100212.47
2022-08-26T16:06:40.941Z,100219.22
2022-08-26T16:09:09.727Z,100218.84
2022-08-26T16:11:38.050Z,100226.50
2022-08-26T16:14:06.004Z,100223.03
2022-08-26T16:16:33.441Z,100220.34
2022-08-26T16:19:05.554Z,100218.84
2022-08-26T16:21:35.169Z,100222.91
2022-08-26T16:24:03.546Z,100229.66
2022-08-26T16:26:34.737Z,100226.56
2022-08-26T16:29:04.646Z,100232.44
2022-08-26T16:31:32.255Z,100225.25
2022-08-26T16:33:59.788Z,100224.75
2022-08-26T16:36:27.318Z,100221.31
2022-08-26T16:38:56.357Z,100227.88
2022-08-26T16:41:25.408Z,100222.56
2022-08-26T16:43:53.410Z,100219.44
2022-08-26T16:46:23.678Z,100224.72
2022-08-26T16:48:53.484Z,100212.00
2022-08-26T16:51:23.069Z,100221.06
2022-08-26T16:53:51.842Z,100225.28
2022-08-26T16:56:22.621Z,100229.38
2022-08-26T16:58:50.682Z,100223.75
2022-08-26T17:01:18.261Z,100226.38
2022-08-26T17:03:45.638Z,100222.31
2022-08-26T17:06:13.191Z,100219.63
2022-08-26T17:08:41.932Z,100217.63
2022-08-26T17:11:09.382Z,100217.16
2022-08-26T17:13:38.100Z,100215.97
2022-08-26T17:16:08.467Z,100215.84
2022-08-26T17:18:37.334Z,100223.66
2022-08-26T17:21:09.338Z,100223.66
2022-08-26T17:23:38.329Z,100219.88
2022-08-26T17:26:05.877Z,100219.47
2022-08-26T17:28:33.626Z,100219.34
2022-08-26T17:31:01.791Z,100224.19
2022-08-26T17:33:29.677Z,100219.19
2022-08-26T17:35:57.539Z,100223.28
2022-08-26T17:38:25.706Z,100224.69
2022-08-26T17:40:53.507Z,100227.16
2022-08-26T17:43:20.882Z,100226.09
2022-08-26T17:45:48.261Z,100220.66
2022-08-26T17:48:15.684Z,100220.78
2022-08-26T17:50:43.261Z,100216.78
2022-08-26T17:53:19.105Z,100219.59
2022-08-26T17:55:49.897Z,100212.56
2022-08-26T17:58:23.371Z,100210.88
2022-08-26T18:00:52.812Z,100210.53
2022-08-26T18:03:20.393Z,100210.25
2022-08-26T18:05:49.978Z,100206.81
2022-08-26T18:08:17.678Z,100225.03
2022-08-26T18:10:45.103Z,100210.13
2022-08-26T18:13:14.725Z,100211.03
2022-08-26T18:15:45.301Z,100218.06
2022-08-26T18:18:14.347Z,100215.53
2022-08-26T18:20:43.601Z,100221.16
2022-08-26T18:23:12.383Z,100229.13
2022-08-26T18:25:43.508Z,100225.41
2022-08-26T18:28:10.980Z,100231.63
2022-08-26T18:30:38.586Z,100223.47
2022-08-26T18:33:06.028Z,100221.47
2022-08-26T18:35:39.341Z,100228.16
2022-08-26T18:38:11.264Z,100222.09
2022-08-26T18:40:41.631Z,100228.63
2022-08-26T18:43:09.321Z,100225.34
2022-08-26T18:45:37.021Z,100232.06
2022-08-26T18:48:05.124Z,100223.50
2022-08-26T18:50:32.598Z,100230.66
2022-08-26T18:53:01.886Z,100228.31
2022-08-26T18:55:29.197Z,100226.75
2022-08-26T18:57:56.544Z,100226.59
2022-08-26T19:00:23.983Z,100227.97
2022-08-26T19:02:52.058Z,100225.00
2022-08-26T19:05:22.979Z,100234.06
2022-08-26T19:07:51.808Z,100229.03
2022-08-26T19:10:19.154Z,100225.88
2022-08-26T19:12:46.475Z,100229.47
2022-08-26T19:15:19.602Z,100229.47
2022-08-26T19:17:48.130Z,100228.00
2022-08-26T19:20:15.635Z,100227.84
2022-08-26T19:22:43.165Z,100236.03
2022-08-26T19:25:10.546Z,100239.84
2022-08-26T19:27:37.922Z,100235.38
2022-08-26T19:30:07.067Z,100237.75
2022-08-26T19:32:34.429Z,100238.31
2022-08-26T19:35:01.922Z,100237.81
2022-08-26T19:37:29.355Z,100238.25
2022-08-26T19:39:56.822Z,100246.81
2022-08-26T19:42:24.177Z,100245.28
2022-08-26T19:45:07.386Z,100249.88
2022-08-26T19:47:39.830Z,100246.72
2022-08-26T19:50:11.708Z,100241.69
2022-08-26T19:52:41.319Z,100244.84
2022-08-26T19:55:11.435Z,100250.56
2022-08-26T19:57:39.996Z,100241.78
2022-08-26T20:00:11.750Z,100242.06
2022-08-26T20:02:39.683Z,100239.69
2022-08-26T20:05:08.654Z,100243.19
2022-08-26T20:07:36.215Z,100246.53
2022-08-26T20:10:05.707Z,100247.00
2022-08-26T20:12:35.560Z,100242.97
2022-08-26T20:15:05.066Z,100246.13
2022-08-26T20:17:32.964Z,100243.91
2022-08-26T20:20:28.428Z,100242.47
2022-08-26T20:23:04.400Z,100246.25
2022-08-26T20:25:33.259Z,100249.09
2022-08-26T20:28:00.871Z,100246.34
2022-08-26T20:30:28.368Z,100242.97
2022-08-26T20:32:56.239Z,100252.81
2022-08-26T20:35:24.006Z,100253.84
2022-08-26T20:37:51.427Z,100254.03
2022-08-26T20:40:19.026Z,100261.88
2022-08-26T20:42:46.509Z,100250.47
2022-08-26T20:45:13.993Z,100251.13
2022-08-26T20:47:41.748Z,100251.09
2022-08-26T20:50:09.825Z,100257.03
2022-08-26T20:52:37.230Z,100247.53
2022-08-26T20:55:05.091Z,100254.78
2022-08-26T20:57:32.433Z,100256.59
2022-08-26T21:00:01.004Z,100270.47
2022-08-26T21:02:28.446Z,100269.25
2022-08-26T21:04:55.815Z,100267.69
2022-08-26T21:07:23.257Z,100273.28
2022-08-26T21:09:51.611Z,100273.84
2022-08-26T21:12:19.064Z,100266.00
2022-08-26T21:14:49.555Z,100263.88
2022-08-26T21:17:17.291Z,100271.03
2022-08-26T21:19:44.711Z,100261.16
2022-08-26T21:22:12.370Z,100270.25
2022-08-26T21:24:40.146Z,100267.78
2022-08-26T21:27:07.449Z,100264.44
2022-08-26T21:29:36.183Z,100270.34
2022-08-26T21:32:04.632Z,100275.16
2022-08-26T21:34:32.684Z,100275.50
2022-08-26T21:37:00.633Z,100273.72
2022-08-26T21:39:28.237Z,100267.34
2022-08-26T21:41:55.706Z,100267.88
2022-08-26T21:44:23.046Z,100270.25
2022-08-26T21:46:50.797Z,100270.59
2022-08-26T21:49:18.122Z,100271.38
2022-08-26T21:51:48.280Z,100267.34
2022-08-26T21:54:16.131Z,100267.13
2022-08-26T21:56:46.821Z,100261.78
2022-08-26T21:59:18.974Z,100265.66
2022-08-26T22:01:46.594Z,100256.28
2022-08-26T22:04:13.982Z,100259.06
2022-08-26T22:06:47.688Z,100257.25
2022-08-26T22:09:17.887Z,100258.81
2022-08-26T22:11:46.344Z,100255.31
2022-08-26T22:14:15.287Z,100255.78
2022-08-26T22:16:50.249Z,100249.75
2022-08-26T22:19:20.142Z,100251.97
2022-08-26T22:21:50.117Z,100250.41
2022-08-26T22:24:19.904Z,100248.41
2022-08-26T22:26:48.469Z,100247.38
2022-08-26T22:29:16.953Z,100252.53
2022-08-26T22:31:44.823Z,100254.09
2022-08-26T22:34:17.141Z,100250.63
2022-08-26T22:36:47.600Z,100248.03
2022-08-26T22:39:17.980Z,100244.75
2022-08-26T22:41:48.551Z,100251.47
2022-08-26T22:44:17.680Z,100255.91
2022-08-26T22:46:46.206Z,100245.75
2022-08-26T22:49:18.235Z,100256.03
2022-08-26T22:51:46.535Z,100251.91
2022-08-26T22:54:14.723Z,100250.84
2022-08-26T22:56:43.815Z,100257.50
2022-08-26T22:59:12.121Z,100262.22
2022-08-26T23:01:42.989Z,100276.34
2022-08-26T23:04:11.168Z,100272.91
2022-08-26T23:06:41.206Z,100265.31
2022-08-26T23:09:09.984Z,100269.25
2022-08-26T23:11:39.806Z,100260.56
2022-08-26T23:14:10.233Z,100260.81
2022-08-26T23:16:41.576Z,100256.28
2022-08-26T23:19:11.662Z,100263.19
2022-08-26T23:21:39.701Z,100260.41
2022-08-26T23:24:07.767Z,100265.81
2022-08-26T23:26:36.408Z,100263.88
2022-08-26T23:29:06.187Z,100264.66
2022-08-26T23:31:34.045Z,100259.53
2022-08-26T23:34:20.290Z,100263.09
2022-08-26T23:36:47.920Z,100262.69
2022-08-26T23:39:15.474Z,100261.00
2022-08-26T23:41:42.921Z,100257.28
2022-08-26T23:44:11.595Z,100261.63
2022-08-26T23:46:39.096Z,100253.00
2022-08-26T23:49:06.750Z,100266.53
2022-08-26T23:51:52.745Z,100262.66
2022-08-26T23:54:20.121Z,100267.50
2022-08-26T23:56:47.445Z,100264.38
2022-08-26T23:59:15.606Z,100270.22
